Time;durP1;ratioP1;P1;durP2;ratioP2;P2;SDS_P1;SDS_P2;PMS_P1;PMS_P2;Temp;Humidity;BMP_temperature;BMP_pressure;BME280_temperature;BME280_humidity;BME280_pressure;Samples;Min_cycle;Max_cycle;Signal;HPM_P1;HPM_P2
2023/12/02 00:01:23;;;;;;;21.67;19.67;;;;;;;;;;5013205;28;20405;-41
2023/12/02 00:03:50;;;;;;;34.10;30.60;;;;;;;;;;5002665;28;20898;-41
2023/12/02 00:06:16;;;;;;;25.58;23.13;;;;;;;;;;5019156;28;20485;-43
2023/12/02 00:08:42;;;;;;;34.25;31.05;;;;;;;;;;5011727;28;20613;-43
2023/12/02 00:11:08;;;;;;;25.45;22.95;;;;;;;;;;5011473;28;20255;-41
2023/12/02 00:13:34;;;;;;;39.03;35.13;;;;;;;;;;5011688;28;20176;-41
2023/12/02 00:16:00;;;;;;;33.60;30.30;;;;;;;;;;5011270;28;20510;-42
2023/12/02 00:18:26;;;;;;;36.30;32.80;;;;;;;;;;5011626;28;20430;-41
2023/12/02 00:20:52;;;;;;;28.53;25.77;;;;;;;;;;5011513;28;20431;-41
2023/12/02 00:23:19;;;;;;;39.17;35.40;;;;;;;;;;5011661;28;20799;-41
2023/12/02 00:25:45;;;;;;;39.97;35.80;;;;;;;;;;4996755;28;20937;-41
2023/12/02 00:28:11;;;;;;;27.67;25.03;;;;;;;;;;5018889;28;20187;-41
2023/12/02 00:30:37;;;;;;;35.20;31.85;;;;;;;;;;5010044;28;20407;-41
2023/12/02 00:33:03;;;;;;;21.90;20.03;;;;;;;;;;5015102;28;20187;-41
2023/12/02 00:35:30;;;;;;;26.15;23.75;;;;;;;;;;5014894;28;20431;-41
2023/12/02 00:37:56;;;;;;;32.08;28.95;;;;;;;;;;5008374;28;20180;-41
2023/12/02 00:40:22;;;;;;;30.45;26.98;;;;;;;;;;5015200;28;20168;-41
2023/12/02 00:42:48;;;;;;;54.28;49.58;;;;;;;;;;5019277;28;20172;-41
2023/12/02 00:45:14;;;;;;;32.10;28.98;;;;;;;;;;4998961;28;20200;-41
2023/12/02 00:47:40;;;;;;;24.15;21.80;;;;;;;;;;5014734;28;20214;-41
2023/12/02 00:50:06;;;;;;;30.83;27.00;;;;;;;;;;5014944;28;20183;-41
2023/12/02 00:52:32;;;;;;;24.88;22.45;;;;;;;;;;5014867;28;20272;-41
2023/12/02 00:54:58;;;;;;;23.63;21.40;;;;;;;;;;5014549;28;20292;-41
2023/12/02 00:57:24;;;;;;;23.00;20.90;;;;;;;;;;5015861;28;20399;-42
2023/12/02 00:59:51;;;;;;;26.30;23.70;;;;;;;;;;5019289;28;20171;-42
2023/12/02 01:02:17;;;;;;;26.65;24.05;;;;;;;;;;5022196;28;20410;-41
2023/12/02 01:04:43;;;;;;;24.98;22.67;;;;;;;;;;5014149;28;20632;-42
2023/12/02 01:07:09;;;;;;;23.17;21.10;;;;;;;;;;5017121;28;20184;-41
2023/12/02 01:09:35;;;;;;;35.17;31.75;;;;;;;;;;5003612;28;20206;-42
2023/12/02 01:12:01;;;;;;;28.83;25.98;;;;;;;;;;5020165;28;20203;-41
2023/12/02 01:14:27;;;;;;;25.50;22.98;;;;;;;;;;5014228;28;20191;-41
2023/12/02 01:16:53;;;;;;;23.13;20.97;;;;;;;;;;5014255;28;20303;-41
2023/12/02 01:19:19;;;;;;;32.58;29.17;;;;;;;;;;5014383;28;20714;-41
2023/12/02 01:21:45;;;;;;;32.87;29.40;;;;;;;;;;5016987;28;20649;-41
2023/12/02 01:24:11;;;;;;;25.20;22.77;;;;;;;;;;5018320;28;20419;-41
2023/12/02 01:26:37;;;;;;;30.15;26.95;;;;;;;;;;5019767;28;20431;-41
2023/12/02 01:29:03;;;;;;;21.25;19.38;;;;;;;;;;5014331;28;20169;-41
2023/12/02 01:31:29;;;;;;;21.87;19.90;;;;;;;;;;5030679;28;20678;-41
2023/12/02 01:33:55;;;;;;;21.37;19.47;;;;;;;;;;5022196;28;20923;-42
2023/12/02 01:36:21;;;;;;;31.35;28.17;;;;;;;;;;5021837;28;20791;-41
2023/12/02 01:38:47;;;;;;;23.45;21.23;;;;;;;;;;5027762;28;20255;-42
2023/12/02 01:41:13;;;;;;;25.43;23.17;;;;;;;;;;5013932;28;20327;-41
2023/12/02 01:43:39;;;;;;;23.83;21.77;;;;;;;;;;5012450;28;20403;-42
2023/12/02 01:46:05;;;;;;;25.80;23.37;;;;;;;;;;5013112;28;20439;-41
2023/12/02 01:48:33;;;;;;;25.50;23.17;;;;;;;;;;5011449;28;20447;-41
2023/12/02 01:50:59;;;;;;;23.05;21.08;;;;;;;;;;5001336;28;20204;-41
2023/12/02 01:53:25;;;;;;;25.02;22.83;;;;;;;;;;5016999;28;20643;-41
2023/12/02 01:55:52;;;;;;;30.05;27.05;;;;;;;;;;5013702;28;20208;-41
2023/12/02 01:58:18;;;;;;;28.70;25.98;;;;;;;;;;5002925;28;20257;-41
2023/12/02 02:00:44;;;;;;;29.13;26.38;;;;;;;;;;5015159;28;20182;-41
2023/12/02 02:03:10;;;;;;;24.77;22.47;;;;;;;;;;5014975;28;20636;-41
2023/12/02 02:05:36;;;;;;;33.50;29.97;;;;;;;;;;5016661;28;20838;-41
2023/12/02 02:08:02;;;;;;;32.28;28.98;;;;;;;;;;5015016;28;20796;-41
2023/12/02 02:10:28;;;;;;;25.92;23.60;;;;;;;;;;5003417;28;20181;-41
2023/12/02 02:12:54;;;;;;;34.58;31.15;;;;;;;;;;5001625;28;20172;-42
2023/12/02 02:15:20;;;;;;;40.05;35.55;;;;;;;;;;5016370;28;20258;-42
2023/12/02 02:17:46;;;;;;;44.05;37.25;;;;;;;;;;5016786;28;20720;-41
2023/12/02 02:20:12;;;;;;;64.18;50.00;;;;;;;;;;5015280;28;20167;-41
2023/12/02 02:22:39;;;;;;;57.55;46.20;;;;;;;;;;5019216;28;20640;-41
2023/12/02 02:25:05;;;;;;;67.15;53.53;;;;;;;;;;5012683;28;20239;-42
2023/12/02 02:27:31;;;;;;;50.38;41.58;;;;;;;;;;5013054;28;20188;-41
2023/12/02 02:29:58;;;;;;;30.25;27.25;;;;;;;;;;5016509;28;20171;-42
2023/12/02 02:32:24;;;;;;;48.50;40.72;;;;;;;;;;5018302;28;20250;-41
2023/12/02 02:34:49;;;;;;;26.33;24.10;;;;;;;;;;5018269;28;20424;-41
2023/12/02 02:37:15;;;;;;;44.67;38.57;;;;;;;;;;5013597;28;20404;-41
2023/12/02 02:39:41;;;;;;;41.20;36.77;;;;;;;;;;5012839;28;20412;-41
2023/12/02 02:42:08;;;;;;;39.00;35.40;;;;;;;;;;5014545;28;20426;-41
2023/12/02 02:44:34;;;;;;;51.85;42.78;;;;;;;;;;5012349;28;20179;-41
2023/12/02 02:47:00;;;;;;;42.60;38.38;;;;;;;;;;5012413;28;20184;-41
2023/12/02 02:49:27;;;;;;;26.42;24.08;;;;;;;;;;5019060;28;20585;-41
2023/12/02 02:51:53;;;;;;;27.80;25.33;;;;;;;;;;5012508;28;20287;-41
2023/12/02 02:54:19;;;;;;;26.43;24.17;;;;;;;;;;5014283;28;20648;-41
2023/12/02 02:56:45;;;;;;;27.27;24.83;;;;;;;;;;5012317;28;20423;-41
2023/12/02 02:59:12;;;;;;;31.02;28.25;;;;;;;;;;5012530;28;20173;-42
2023/12/02 03:01:39;;;;;;;31.77;28.67;;;;;;;;;;5012510;28;20278;-42
2023/12/02 03:04:05;;;;;;;52.88;43.28;;;;;;;;;;5019059;28;20180;-41
2023/12/02 03:06:31;;;;;;;60.15;47.70;;;;;;;;;;5011827;28;20279;-42
2023/12/02 03:08:57;;;;;;;45.97;39.17;;;;;;;;;;5012325;28;20191;-42
2023/12/02 03:11:23;;;;;;;51.27;43.07;;;;;;;;;;5012101;28;20540;-41
2023/12/02 03:13:49;;;;;;;25.90;23.67;;;;;;;;;;5015930;28;20415;-41
2023/12/02 03:16:15;;;;;;;40.37;34.50;;;;;;;;;;5013689;28;20486;-41
2023/12/02 03:18:41;;;;;;;25.17;22.92;;;;;;;;;;5015252;28;20887;-41
2023/12/02 03:21:07;;;;;;;25.87;23.47;;;;;;;;;;5011958;28;20180;-41
2023/12/02 03:23:33;;;;;;;31.15;28.23;;;;;;;;;;5013798;28;20788;-41
2023/12/02 03:25:59;;;;;;;31.50;28.40;;;;;;;;;;5014958;28;20200;-42
2023/12/02 03:28:24;;;;;;;24.67;22.57;;;;;;;;;;5016919;28;20416;-42
2023/12/02 03:30:51;;;;;;;30.10;27.30;;;;;;;;;;5017870;28;20949;-41
2023/12/02 03:33:16;;;;;;;22.48;20.45;;;;;;;;;;5012821;28;20403;-42
2023/12/02 03:35:42;;;;;;;33.57;29.97;;;;;;;;;;5011554;28;20204;-41
2023/12/02 03:38:08;;;;;;;34.97;31.23;;;;;;;;;;5013741;28;20411;-42
2023/12/02 03:40:34;;;;;;;28.33;25.70;;;;;;;;;;5015242;28;20407;-41
2023/12/02 03:43:00;;;;;;;25.52;23.40;;;;;;;;;;5011794;28;20177;-41
2023/12/02 03:45:26;;;;;;;30.30;27.33;;;;;;;;;;5011628;28;20628;-42
2023/12/02 03:47:52;;;;;;;30.27;27.23;;;;;;;;;;5015404;28;20422;-41
2023/12/02 03:50:18;;;;;;;32.22;29.02;;;;;;;;;;5031518;28;20458;-42
2023/12/02 03:52:45;;;;;;;32.30;29.08;;;;;;;;;;5012725;28;20757;-41
2023/12/02 03:55:11;;;;;;;28.40;25.75;;;;;;;;;;5026351;28;20223;-42
2023/12/02 03:57:37;;;;;;;33.05;29.83;;;;;;;;;;5030861;28;20341;-41
2023/12/02 04:00:10;;;;;;;30.77;27.77;;;;;;;;;;5024068;28;20211;-41
2023/12/02 04:02:36;;;;;;;24.55;22.30;;;;;;;;;;5010630;28;20933;-41
2023/12/02 04:05:03;;;;;;;41.85;37.22;;;;;;;;;;4995747;28;20197;-42
2023/12/02 04:07:28;;;;;;;32.75;29.65;;;;;;;;;;5015514;28;20168;-41
2023/12/02 04:09:54;;;;;;;25.43;22.97;;;;;;;;;;5000634;28;20229;-41
2023/12/02 04:12:20;;;;;;;33.27;29.87;;;;;;;;;;5007018;28;20466;-42
2023/12/02 04:14:46;;;;;;;22.35;20.40;;;;;;;;;;5008143;28;20436;-42
2023/12/02 04:17:12;;;;;;;23.10;20.90;;;;;;;;;;4998870;28;20168;-41
2023/12/02 04:19:38;;;;;;;25.70;23.40;;;;;;;;;;5015584;28;20490;-40
2023/12/02 04:22:04;;;;;;;25.77;23.47;;;;;;;;;;4996658;28;20483;-41
2023/12/02 04:24:30;;;;;;;33.17;29.95;;;;;;;;;;5010058;28;20419;-41
2023/12/02 04:26:56;;;;;;;34.33;30.87;;;;;;;;;;5005071;28;20176;-42
2023/12/02 04:29:22;;;;;;;44.70;39.42;;;;;;;;;;5002175;28;20790;-41
2023/12/02 04:31:48;;;;;;;36.33;32.03;;;;;;;;;;5012473;28;20262;-42
2023/12/02 04:34:14;;;;;;;35.90;31.13;;;;;;;;;;4995670;28;20403;-41
2023/12/02 04:36:40;;;;;;;30.15;27.35;;;;;;;;;;5013461;28;20427;-41
2023/12/02 04:39:09;;;;;;;27.33;24.77;;;;;;;;;;5001002;28;20184;-41
2023/12/02 04:41:37;;;;;;;29.35;26.52;;;;;;;;;;5006135;28;20404;-42
2023/12/02 04:44:03;;;;;;;30.10;27.20;;;;;;;;;;5014520;28;20242;-41
2023/12/02 04:46:29;;;;;;;25.75;23.10;;;;;;;;;;5011845;28;20438;-41
2023/12/02 04:48:55;;;;;;;25.17;22.97;;;;;;;;;;4995452;28;20185;-41
2023/12/02 04:51:20;;;;;;;28.43;25.73;;;;;;;;;;5013568;28;20537;-41
2023/12/02 04:53:46;;;;;;;32.93;29.53;;;;;;;;;;5000629;28;20411;-41
2023/12/02 04:56:12;;;;;;;20.33;18.73;;;;;;;;;;5004913;28;20919;-42
2023/12/02 04:58:38;;;;;;;24.97;22.60;;;;;;;;;;5008773;28;20896;-42
2023/12/02 05:01:04;;;;;;;65.17;51.00;;;;;;;;;;4996982;28;20963;-41
2023/12/02 05:03:30;;;;;;;33.13;29.88;;;;;;;;;;5014706;28;20407;-41
2023/12/02 05:05:56;;;;;;;29.35;26.52;;;;;;;;;;4996521;28;20193;-41
2023/12/02 05:08:22;;;;;;;31.90;28.67;;;;;;;;;;5008549;28;20207;-41
2023/12/02 05:10:48;;;;;;;40.60;36.22;;;;;;;;;;5004828;28;20412;-41
2023/12/02 05:13:14;;;;;;;30.77;27.98;;;;;;;;;;5000094;28;20176;-41
2023/12/02 05:15:40;;;;;;;70.40;56.97;;;;;;;;;;5012493;28;20189;-42
2023/12/02 05:18:06;;;;;;;43.65;39.08;;;;;;;;;;4994981;28;20400;-41
2023/12/02 05:20:33;;;;;;;24.43;22.37;;;;;;;;;;5011995;28;20546;-41
2023/12/02 05:22:58;;;;;;;26.20;23.98;;;;;;;;;;5001136;28;20415;-42
2023/12/02 05:25:24;;;;;;;36.40;32.70;;;;;;;;;;5003267;28;20197;-42
2023/12/02 05:27:50;;;;;;;25.80;23.53;;;;;;;;;;5009151;28;20412;-41
2023/12/02 05:30:17;;;;;;;29.98;27.33;;;;;;;;;;4995335;28;20415;-41
2023/12/02 05:32:43;;;;;;;27.00;24.65;;;;;;;;;;5014269;28;20195;-41
2023/12/02 05:35:12;;;;;;;24.70;22.47;;;;;;;;;;4997096;28;20596;-41
2023/12/02 05:37:39;;;;;;;20.10;18.30;;;;;;;;;;5007397;28;20411;-41
2023/12/02 05:40:05;;;;;;;23.77;21.73;;;;;;;;;;5004816;28;20181;-41
2023/12/02 05:42:32;;;;;;;27.98;25.50;;;;;;;;;;5002565;28;20528;-41
2023/12/02 05:44:58;;;;;;;41.22;35.90;;;;;;;;;;5012166;28;20255;-41
2023/12/02 05:47:24;;;;;;;32.23;28.77;;;;;;;;;;4994267;28;20263;-41
2023/12/02 05:49:50;;;;;;;25.70;23.52;;;;;;;;;;5011144;28;20404;-41
2023/12/02 05:52:16;;;;;;;44.67;37.80;;;;;;;;;;5000938;28;20219;-41
2023/12/02 05:54:42;;;;;;;50.00;41.07;;;;;;;;;;5002591;28;20487;-41
2023/12/02 05:57:08;;;;;;;63.83;50.57;;;;;;;;;;5009467;28;20412;-42
2023/12/02 05:59:34;;;;;;;64.82;50.95;;;;;;;;;;4994504;28;20396;-42
2023/12/02 06:02:00;;;;;;;63.43;49.27;;;;;;;;;;5013771;28;20650;-42
2023/12/02 06:04:26;;;;;;;65.77;52.77;;;;;;;;;;4996832;28;20912;-42
2023/12/02 06:06:52;;;;;;;53.20;43.43;;;;;;;;;;5006163;28;20918;-41
2023/12/02 06:09:18;;;;;;;65.35;51.30;;;;;;;;;;5005161;28;20912;-41
2023/12/02 06:11:44;;;;;;;64.13;51.43;;;;;;;;;;4997772;28;20282;-41
2023/12/02 06:14:10;;;;;;;64.20;51.40;;;;;;;;;;5013082;28;20404;-41
2023/12/02 06:16:36;;;;;;;66.55;49.67;;;;;;;;;;4993465;28;20416;-41
2023/12/02 06:19:02;;;;;;;65.68;50.80;;;;;;;;;;5009394;28;20173;-41
2023/12/02 06:21:28;;;;;;;62.40;47.13;;;;;;;;;;5001481;28;20554;-41
2023/12/02 06:23:54;;;;;;;65.60;50.23;;;;;;;;;;5000929;28;20777;-41
2023/12/02 06:26:20;;;;;;;64.70;51.77;;;;;;;;;;5008593;28;20799;-41
2023/12/02 06:28:49;;;;;;;50.97;40.77;;;;;;;;;;4993713;28;20816;-41
2023/12/02 06:31:15;;;;;;;68.03;55.38;;;;;;;;;;5013095;28;20455;-41
2023/12/02 06:33:41;;;;;;;66.85;51.78;;;;;;;;;;4997250;28;20260;-41
2023/12/02 06:36:08;;;;;;;61.23;50.93;;;;;;;;;;5004486;28;20639;-42
2023/12/02 06:38:36;;;;;;;64.10;52.80;;;;;;;;;;5005160;28;20435;-41
2023/12/02 06:41:02;;;;;;;64.32;53.10;;;;;;;;;;4996866;28;20173;-42
2023/12/02 06:43:28;;;;;;;65.35;51.65;;;;;;;;;;5012941;28;20176;-42
2023/12/02 06:45:54;;;;;;;64.13;50.93;;;;;;;;;;5012418;28;20704;-42
2023/12/02 06:48:20;;;;;;;64.22;50.88;;;;;;;;;;4997045;28;20424;-42
2023/12/02 06:50:46;;;;;;;64.27;51.00;;;;;;;;;;5004406;28;20302;-41
2023/12/02 06:53:15;;;;;;;65.47;52.93;;;;;;;;;;5005189;28;20416;-42
2023/12/02 06:55:41;;;;;;;64.22;53.28;;;;;;;;;;4996267;28;20924;-41
2023/12/02 06:58:07;;;;;;;63.97;52.38;;;;;;;;;;5012497;28;20168;-41
2023/12/02 07:00:34;;;;;;;65.93;52.75;;;;;;;;;;4993238;28;20176;-41
2023/12/02 07:02:59;;;;;;;68.53;54.47;;;;;;;;;;5008199;28;20593;-42
2023/12/02 07:05:26;;;;;;;62.53;51.70;;;;;;;;;;5000682;28;20204;-42
2023/12/02 07:07:52;;;;;;;63.03;51.75;;;;;;;;;;4999938;28;20422;-41
2023/12/02 07:10:18;;;;;;;66.50;53.15;;;;;;;;;;5008936;28;20189;-41
2023/12/02 07:12:44;;;;;;;64.32;52.38;;;;;;;;;;4992886;28;20192;-41
2023/12/02 07:15:10;;;;;;;67.47;52.70;;;;;;;;;;5008996;28;20276;-41
2023/12/02 07:17:36;;;;;;;65.63;53.25;;;;;;;;;;5012426;28;20199;-41
2023/12/02 07:20:02;;;;;;;67.68;56.22;;;;;;;;;;5012160;28;20168;-42
2023/12/02 07:22:28;;;;;;;64.88;52.10;;;;;;;;;;5012068;28;20314;-41
2023/12/02 07:24:54;;;;;;;62.73;51.70;;;;;;;;;;5011792;28;20612;-41
2023/12/02 07:27:20;;;;;;;63.33;49.55;;;;;;;;;;5017402;28;20461;-41
2023/12/02 07:29:46;;;;;;;64.30;50.80;;;;;;;;;;5012086;28;20192;-41
2023/12/02 07:32:12;;;;;;;64.47;53.10;;;;;;;;;;5011876;28;20549;-41
2023/12/02 07:34:39;;;;;;;64.53;55.30;;;;;;;;;;5011962;28;20404;-42
2023/12/02 07:37:05;;;;;;;63.65;53.20;;;;;;;;;;5015410;28;20449;-41
2023/12/02 07:39:31;;;;;;;64.63;54.30;;;;;;;;;;5013334;28;20200;-41
2023/12/02 07:41:57;;;;;;;64.33;52.50;;;;;;;;;;5015584;28;20407;-41
2023/12/02 07:44:24;;;;;;;67.80;53.78;;;;;;;;;;5017235;28;20974;-41
2023/12/02 07:46:50;;;;;;;64.22;51.10;;;;;;;;;;5011695;28;20647;-41
2023/12/02 07:49:16;;;;;;;64.50;52.88;;;;;;;;;;5011795;28;20192;-41
2023/12/02 07:51:42;;;;;;;64.83;53.90;;;;;;;;;;5011648;28;20211;-41
2023/12/02 07:54:08;;;;;;;63.95;53.08;;;;;;;;;;5011534;28;20898;-41
2023/12/02 07:56:36;;;;;;;62.40;51.87;;;;;;;;;;5011469;28;20214;-41
2023/12/02 07:59:03;;;;;;;65.30;54.13;;;;;;;;;;5011703;28;20792;-41
2023/12/02 08:01:29;;;;;;;64.13;51.92;;;;;;;;;;5011905;28;20168;-42
2023/12/02 08:03:56;;;;;;;66.63;55.90;;;;;;;;;;5011659;28;20184;-42
2023/12/02 08:06:22;;;;;;;64.20;51.17;;;;;;;;;;5011269;28;20661;-42
2023/12/02 08:08:48;;;;;;;63.80;55.73;;;;;;;;;;5011973;28;20192;-42
2023/12/02 08:11:15;;;;;;;62.85;53.35;;;;;;;;;;5011488;28;20469;-42
2023/12/02 08:13:41;;;;;;;61.55;52.10;;;;;;;;;;5011651;28;20186;-42
2023/12/02 08:16:08;;;;;;;65.23;51.70;;;;;;;;;;5011160;28;20742;-41
2023/12/02 08:18:35;;;;;;;65.68;51.58;;;;;;;;;;5011542;28;20405;-41
2023/12/02 08:21:01;;;;;;;64.00;52.20;;;;;;;;;;5011378;28;20191;-41
2023/12/02 08:23:27;;;;;;;64.47;52.40;;;;;;;;;;5011666;28;20564;-41
2023/12/02 08:25:53;;;;;;;64.00;51.43;;;;;;;;;;5011034;28;20427;-42
2023/12/02 08:28:19;;;;;;;64.07;50.65;;;;;;;;;;5011442;28;20411;-42
2023/12/02 08:30:45;;;;;;;62.70;51.23;;;;;;;;;;5011379;28;20251;-42
2023/12/02 08:33:11;;;;;;;62.37;52.17;;;;;;;;;;5011368;28;20481;-41
2023/12/02 08:35:37;;;;;;;62.60;52.53;;;;;;;;;;5010981;28;20514;-41
2023/12/02 08:38:03;;;;;;;67.10;53.60;;;;;;;;;;5011350;28;20426;-41
2023/12/02 08:40:29;;;;;;;65.30;50.47;;;;;;;;;;5011568;28;20973;-41
2023/12/02 08:42:55;;;;;;;67.10;53.40;;;;;;;;;;5011405;28;20419;-42
2023/12/02 08:45:20;;;;;;;65.03;53.90;;;;;;;;;;5010848;28;20431;-41
2023/12/02 08:47:46;;;;;;;69.80;56.67;;;;;;;;;;5010691;28;20554;-41
2023/12/02 08:50:12;;;;;;;65.33;53.53;;;;;;;;;;5013653;28;20423;-41
2023/12/02 08:52:38;;;;;;;62.20;52.47;;;;;;;;;;4999202;28;20468;-41
2023/12/02 08:55:05;;;;;;;62.13;52.77;;;;;;;;;;5014316;28;20467;-42
2023/12/02 08:57:31;;;;;;;58.85;49.95;;;;;;;;;;5014658;28;20446;-41
2023/12/02 08:59:57;;;;;;;63.50;52.20;;;;;;;;;;5018805;28;20602;-42
2023/12/02 09:02:23;;;;;;;62.80;52.03;;;;;;;;;;5034090;28;20464;-42
2023/12/02 09:04:49;;;;;;;45.43;40.40;;;;;;;;;;5014163;28;20426;-41
2023/12/02 09:07:15;;;;;;;67.20;53.75;;;;;;;;;;5030466;28;20413;-42
2023/12/02 09:09:42;;;;;;;51.75;45.28;;;;;;;;;;5022244;28;20172;-42
2023/12/02 09:12:08;;;;;;;65.50;52.30;;;;;;;;;;5022325;28;20287;-41
2023/12/02 09:14:34;;;;;;;67.28;56.92;;;;;;;;;;5029980;28;20187;-42
2023/12/02 09:17:00;;;;;;;64.70;53.07;;;;;;;;;;5014224;28;20177;-42
2023/12/02 09:19:25;;;;;;;64.40;51.37;;;;;;;;;;5033807;28;20407;-41
2023/12/02 09:21:51;;;;;;;64.23;52.37;;;;;;;;;;5018371;28;20419;-41
2023/12/02 09:24:36;;;;;;;63.55;52.63;;;;;;;;;;5025522;28;20414;-41
2023/12/02 09:27:06;;;;;;;65.43;54.28;;;;;;;;;;5013693;28;20185;-41
2023/12/02 09:29:34;;;;;;;64.18;53.65;;;;;;;;;;5015647;28;20264;-42
2023/12/02 09:32:05;;;;;;;64.43;53.83;;;;;;;;;;5016825;28;20675;-41
2023/12/02 09:34:40;;;;;;;71.20;59.60;;;;;;;;;;5013949;28;20172;-41
2023/12/02 09:37:18;;;;;;;64.05;51.92;;;;;;;;;;5020524;28;20617;-42
2023/12/02 09:40:04;;;;;;;59.75;50.00;;;;;;;;;;5019994;28;20588;-41
2023/12/02 09:42:30;;;;;;;63.22;51.20;;;;;;;;;;4994770;28;20184;-42
2023/12/02 09:44:57;;;;;;;62.20;52.40;;;;;;;;;;5013399;28;20215;-41
2023/12/02 09:47:26;;;;;;;64.68;54.03;;;;;;;;;;5013630;28;20184;-41
2023/12/02 09:50:07;;;;;;;63.70;53.40;;;;;;;;;;5009382;28;20550;-42
2023/12/02 09:52:47;;;;;;;62.55;51.85;;;;;;;;;;5019546;28;20188;-42
2023/12/02 09:55:27;;;;;;;65.47;52.97;;;;;;;;;;5021109;28;20219;-42
2023/12/02 09:58:06;;;;;;;65.15;53.65;;;;;;;;;;5013733;28;20560;-42
2023/12/02 10:00:39;;;;;;;64.22;52.05;;;;;;;;;;5011635;28;20527;-41
2023/12/02 10:03:14;;;;;;;64.65;52.40;;;;;;;;;;5002648;28;20279;-41
2023/12/02 10:05:50;;;;;;;64.97;54.70;;;;;;;;;;5019631;28;20249;-41
2023/12/02 10:08:26;;;;;;;63.75;56.22;;;;;;;;;;5013675;28;20191;-41
2023/12/02 10:10:58;;;;;;;50.83;45.15;;;;;;;;;;5013292;28;20557;-42
2023/12/02 10:13:36;;;;;;;37.97;34.88;;;;;;;;;;5008363;28;20633;-41
2023/12/02 10:16:05;;;;;;;81.20;37.75;;;;;;;;;;5011993;28;20378;-42
2023/12/02 10:18:37;;;;;;;191.45;61.35;;;;;;;;;;5031615;28;20176;-41
2023/12/02 10:21:06;;;;;;;199.90;64.55;;;;;;;;;;5017324;28;20188;-41
2023/12/02 10:23:37;;;;;;;196.90;61.17;;;;;;;;;;5025008;28;20179;-42
2023/12/02 10:26:06;;;;;;;198.02;63.22;;;;;;;;;;5024151;28;20196;-41
2023/12/02 10:28:32;;;;;;;201.55;65.93;;;;;;;;;;5017702;28;20176;-42
2023/12/02 10:31:00;;;;;;;202.67;66.77;;;;;;;;;;5022566;28;20182;-41
2023/12/02 10:33:27;;;;;;;202.27;64.72;;;;;;;;;;5013369;28;20422;-41
2023/12/02 10:35:57;;;;;;;207.18;66.95;;;;;;;;;;5012730;28;20211;-42
2023/12/02 10:38:27;;;;;;;208.73;65.15;;;;;;;;;;5028485;28;20250;-42
2023/12/02 10:41:04;;;;;;;207.82;65.15;;;;;;;;;;5020547;28;20616;-42
2023/12/02 10:43:36;;;;;;;209.90;66.78;;;;;;;;;;5022130;28;20186;-44
2023/12/02 10:46:03;;;;;;;208.93;68.35;;;;;;;;;;5025866;28;20284;-44
2023/12/02 10:48:29;;;;;;;214.98;68.85;;;;;;;;;;5015097;28;20602;-44
2023/12/02 10:50:56;;;;;;;213.95;67.40;;;;;;;;;;5032465;28;20178;-44
2023/12/02 10:53:23;;;;;;;216.55;67.85;;;;;;;;;;5014400;28;20175;-44
2023/12/02 10:55:55;;;;;;;215.65;67.38;;;;;;;;;;5026427;28;20192;-44
2023/12/02 10:58:22;;;;;;;217.50;68.35;;;;;;;;;;5021671;28;20647;-44
2023/12/02 11:00:49;;;;;;;216.05;70.38;;;;;;;;;;5019552;28;20263;-44
2023/12/02 11:03:34;;;;;;;217.88;70.03;;;;;;;;;;5029296;28;20204;-44
2023/12/02 11:06:27;;;;;;;217.07;66.43;;;;;;;;;;5013702;28;20204;-44
2023/12/02 11:08:53;;;;;;;215.05;68.15;;;;;;;;;;5008260;28;20188;-44
2023/12/02 11:11:27;;;;;;;216.67;69.80;;;;;;;;;;5011926;28;20246;-45
2023/12/02 11:13:55;;;;;;;215.55;67.95;;;;;;;;;;5029917;28;20406;-44
2023/12/02 11:16:40;;;;;;;217.88;68.97;;;;;;;;;;5016394;28;20255;-44
2023/12/02 11:19:10;;;;;;;216.52;70.25;;;;;;;;;;5025030;28;20259;-44
2023/12/02 11:22:03;;;;;;;215.85;67.72;;;;;;;;;;5022989;28;20181;-44
2023/12/02 11:24:48;;;;;;;221.30;72.45;;;;;;;;;;5020401;28;20173;-44
2023/12/02 11:27:29;;;;;;;221.38;72.57;;;;;;;;;;5023577;28;20193;-44
2023/12/02 11:29:58;;;;;;;219.95;71.70;;;;;;;;;;5015386;28;20180;-45
2023/12/02 11:32:31;;;;;;;217.35;68.10;;;;;;;;;;5028992;28;20202;-44
2023/12/02 11:35:02;;;;;;;221.90;72.97;;;;;;;;;;5010870;28;20197;-44
2023/12/02 11:37:28;;;;;;;220.05;70.70;;;;;;;;;;5029738;28;20669;-45
2023/12/02 11:40:13;;;;;;;214.60;66.33;;;;;;;;;;5015946;28;20172;-44
2023/12/02 11:42:50;;;;;;;216.63;67.82;;;;;;;;;;5015503;28;20395;-44
2023/12/02 11:45:18;;;;;;;213.95;66.32;;;;;;;;;;5022106;28;20210;-44
2023/12/02 11:48:04;;;;;;;214.90;66.05;;;;;;;;;;5023746;28;20194;-44
2023/12/02 11:50:49;;;;;;;214.98;67.72;;;;;;;;;;5006370;28;20180;-44
2023/12/02 11:53:41;;;;;;;213.68;65.93;;;;;;;;;;4996620;28;20632;-43
2023/12/02 11:56:09;;;;;;;211.68;64.40;;;;;;;;;;5008442;28;20205;-44
2023/12/02 11:58:51;;;;;;;209.15;65.88;;;;;;;;;;4992361;28;20534;-44
2023/12/02 12:01:23;;;;;;;209.93;65.35;;;;;;;;;;4992395;28;20167;-44
2023/12/02 12:03:55;;;;;;;206.40;64.63;;;;;;;;;;5010599;28;20537;-44
2023/12/02 12:06:30;;;;;;;204.48;63.33;;;;;;;;;;4996428;28;20244;-44
2023/12/02 12:09:15;;;;;;;211.10;69.75;;;;;;;;;;5003417;28;20230;-44
2023/12/02 12:11:42;;;;;;;208.68;62.30;;;;;;;;;;5001013;28;20201;-44
2023/12/02 12:14:09;;;;;;;209.95;62.35;;;;;;;;;;4998839;28;20180;-44
2023/12/02 12:16:35;;;;;;;210.00;63.13;;;;;;;;;;5008470;28;20228;-43
2023/12/02 12:19:01;;;;;;;209.57;63.40;;;;;;;;;;4992090;28;20169;-43
2023/12/02 12:21:27;;;;;;;209.60;62.97;;;;;;;;;;5010385;28;20415;-43
2023/12/02 12:23:52;;;;;;;209.97;64.87;;;;;;;;;;4999171;28;20187;-43
2023/12/02 12:26:18;;;;;;;208.97;63.10;;;;;;;;;;5006076;28;20435;-43
2023/12/02 12:28:44;;;;;;;210.87;64.67;;;;;;;;;;5013042;28;20423;-43
2023/12/02 12:31:10;;;;;;;211.70;66.33;;;;;;;;;;5014548;28;20531;-43
2023/12/02 12:33:41;;;;;;;213.57;66.85;;;;;;;;;;5013469;28;20399;-43
2023/12/02 12:36:09;;;;;;;209.82;64.00;;;;;;;;;;4995982;28;20248;-43
2023/12/02 12:38:37;;;;;;;213.65;66.22;;;;;;;;;;5009796;28;20272;-43
2023/12/02 12:41:06;;;;;;;207.55;61.08;;;;;;;;;;5003308;28;20177;-43
2023/12/02 12:43:32;;;;;;;211.38;65.80;;;;;;;;;;5012149;28;20168;-44
2023/12/02 12:45:58;;;;;;;207.70;62.70;;;;;;;;;;5011285;28;20204;-43
2023/12/02 12:48:27;;;;;;;208.43;63.50;;;;;;;;;;4995412;28;20181;-43
2023/12/02 12:50:59;;;;;;;210.93;62.97;;;;;;;;;;5014776;28;20414;-43
2023/12/02 12:53:30;;;;;;;206.73;61.35;;;;;;;;;;4998802;28;20598;-43
2023/12/02 12:56:12;;;;;;;207.70;61.08;;;;;;;;;;5007907;28;20192;-43
2023/12/02 12:58:52;;;;;;;207.82;62.90;;;;;;;;;;5003922;28;20263;-43
2023/12/02 13:01:21;;;;;;;207.85;63.45;;;;;;;;;;5004291;28;20172;-43
2023/12/02 13:03:51;;;;;;;208.73;63.55;;;;;;;;;;5009771;28;20393;-43
2023/12/02 13:06:41;;;;;;;210.75;66.20;;;;;;;;;;4996577;28;20200;-43
2023/12/02 13:09:12;;;;;;;208.30;62.20;;;;;;;;;;5014524;28;20168;-43
2023/12/02 13:11:56;;;;;;;207.70;63.28;;;;;;;;;;4995549;28;20200;-43
2023/12/02 13:14:23;;;;;;;214.10;70.00;;;;;;;;;;5014543;28;20187;-44
2023/12/02 13:16:49;;;;;;;211.68;67.47;;;;;;;;;;4999459;28;20189;-43
2023/12/02 13:19:17;;;;;;;209.88;63.28;;;;;;;;;;5009258;28;20234;-43
2023/12/02 13:21:43;;;;;;;208.07;64.43;;;;;;;;;;5013941;28;20172;-43
2023/12/02 13:24:12;;;;;;;208.13;64.45;;;;;;;;;;5010371;28;20183;-43
2023/12/02 13:26:39;;;;;;;207.63;65.38;;;;;;;;;;4994560;28;20193;-43
2023/12/02 13:29:05;;;;;;;210.55;67.78;;;;;;;;;;4993626;28;20173;-43
2023/12/02 13:31:33;;;;;;;208.00;63.00;;;;;;;;;;5009074;28;20204;-43
2023/12/02 13:34:19;;;;;;;208.40;63.60;;;;;;;;;;5002195;28;20467;-43
2023/12/02 13:36:49;;;;;;;211.43;67.07;;;;;;;;;;4991714;28;20625;-43
2023/12/02 13:39:25;;;;;;;206.35;62.38;;;;;;;;;;5006760;28;20177;-43
2023/12/02 13:41:52;;;;;;;210.82;65.80;;;;;;;;;;4997653;28;20171;-43
2023/12/02 13:44:21;;;;;;;210.57;65.45;;;;;;;;;;5013355;28;20535;-43
2023/12/02 13:46:49;;;;;;;209.93;66.40;;;;;;;;;;5014007;28;20636;-43
2023/12/02 13:49:15;;;;;;;207.60;66.65;;;;;;;;;;4997031;28;20238;-43
2023/12/02 13:51:42;;;;;;;205.07;64.37;;;;;;;;;;5007265;28;20204;-44
2023/12/02 13:54:19;;;;;;;211.35;68.40;;;;;;;;;;5004783;28;20912;-43
2023/12/02 13:57:03;;;;;;;206.75;64.15;;;;;;;;;;4999331;28;20241;-43
2023/12/02 13:59:47;;;;;;;204.55;62.22;;;;;;;;;;5008930;28;20172;-43
2023/12/02 14:02:27;;;;;;;202.48;59.65;;;;;;;;;;4997370;28;20227;-43
2023/12/02 14:05:06;;;;;;;203.52;61.80;;;;;;;;;;5012156;28;20274;-43
2023/12/02 14:07:43;;;;;;;201.80;60.45;;;;;;;;;;4994197;28;20169;-43
2023/12/02 14:10:10;;;;;;;204.55;61.72;;;;;;;;;;4993132;28;20196;-43
2023/12/02 14:12:55;;;;;;;205.00;62.20;;;;;;;;;;5008186;28;20196;-43
2023/12/02 14:15:36;;;;;;;199.43;59.10;;;;;;;;;;5012510;28;20543;-43
2023/12/02 14:18:21;;;;;;;199.50;60.42;;;;;;;;;;5001096;28;20248;-43
2023/12/02 14:20:52;;;;;;;198.98;59.70;;;;;;;;;;5004935;28;20230;-43